createdAt,value
2018-10-12T00:02:21.723Z,24.50
2018-10-12T00:04:53.447Z,24.51
2018-10-12T00:07:23.946Z,24.48
2018-10-12T00:09:54.353Z,24.49
2018-10-12T00:12:24.702Z,24.48
2018-10-12T00:14:54.994Z,24.47
2018-10-12T00:17:25.330Z,24.46
2018-10-12T00:19:55.670Z,24.47
2018-10-12T00:22:25.974Z,24.48
2018-10-12T00:24:56.293Z,24.39
2018-10-12T00:27:26.634Z,24.45
2018-10-12T00:29:57.043Z,24.43
2018-10-12T00:32:27.454Z,24.43
2018-10-12T00:34:57.846Z,24.43
2018-10-12T00:37:28.192Z,24.41
2018-10-12T00:39:58.542Z,24.41
2018-10-12T00:42:28.890Z,24.41
2018-10-12T00:44:59.222Z,24.41
2018-10-12T00:47:29.542Z,24.42
2018-10-12T00:50:01.082Z,24.41
2018-10-12T00:52:31.439Z,24.40
2018-10-12T00:55:01.728Z,24.41
2018-10-12T00:57:32.747Z,24.40
2018-10-12T01:00:03.118Z,24.40
2018-10-12T01:02:33.508Z,24.40
2018-10-12T01:05:03.859Z,24.41
2018-10-12T01:07:34.294Z,24.39
2018-10-12T01:10:04.615Z,24.39
2018-10-12T01:12:36.478Z,24.39
2018-10-12T01:15:07.808Z,24.38
2018-10-12T01:17:38.563Z,24.39
2018-10-12T01:20:09.646Z,24.39
2018-10-12T01:22:40.105Z,24.38
2018-10-12T01:25:10.743Z,24.37
2018-10-12T01:27:41.074Z,24.36
2018-10-12T01:30:11.397Z,24.37
2018-10-12T01:32:47.614Z,24.35
2018-10-12T01:35:17.978Z,24.34
2018-10-12T01:37:48.343Z,24.36
2018-10-12T01:40:18.607Z,24.35
2018-10-12T01:42:48.874Z,24.33
2018-10-12T01:45:19.192Z,24.32
2018-10-12T01:47:49.466Z,24.33
2018-10-12T01:50:19.894Z,24.33
2018-10-12T01:52:50.323Z,24.31
2018-10-12T01:55:20.586Z,24.32
2018-10-12T01:57:50.946Z,24.32
2018-10-12T02:00:21.275Z,24.30
2018-10-12T02:02:51.582Z,24.30
2018-10-12T02:05:21.914Z,24.31
2018-10-12T02:07:52.238Z,24.30
2018-10-12T02:10:22.510Z,24.31
2018-10-12T02:12:52.778Z,24.32
2018-10-12T02:15:23.018Z,24.30
2018-10-12T02:17:53.300Z,24.29
2018-10-12T02:20:23.534Z,24.30
2018-10-12T02:22:53.814Z,24.28
2018-10-12T02:25:24.074Z,24.28
2018-10-12T02:27:54.384Z,24.27
2018-10-12T02:30:24.814Z,24.30
2018-10-12T02:32:55.082Z,24.30
2018-10-12T02:35:25.385Z,24.30
2018-10-12T02:37:55.643Z,24.29
2018-10-12T02:40:25.919Z,24.28
2018-10-12T02:42:56.241Z,24.27
2018-10-12T02:45:26.595Z,24.28
2018-10-12T02:47:57.046Z,24.27
2018-10-12T02:50:29.030Z,24.26
2018-10-12T02:52:59.386Z,24.27
2018-10-12T02:55:29.750Z,24.26
2018-10-12T02:58:00.035Z,24.25
2018-10-12T03:00:30.847Z,24.26
2018-10-12T03:03:01.106Z,24.25
2018-10-12T03:05:31.430Z,24.25
2018-10-12T03:08:02.311Z,24.25
2018-10-12T03:10:32.596Z,24.24
2018-10-12T03:13:02.902Z,24.24
2018-10-12T03:15:33.495Z,24.24
2018-10-12T03:18:03.766Z,24.23
2018-10-12T03:20:34.096Z,24.22
2018-10-12T03:23:04.346Z,24.23
2018-10-12T03:25:34.718Z,24.24
2018-10-12T03:28:26.239Z,24.23
2018-10-12T03:30:57.163Z,24.21
2018-10-12T03:33:28.877Z,24.21
2018-10-12T03:35:59.539Z,24.20
2018-10-12T03:38:29.840Z,24.19
2018-10-12T03:41:00.199Z,24.19
2018-10-12T03:43:30.871Z,24.19
2018-10-12T03:46:01.194Z,24.18
2018-10-12T03:48:31.449Z,24.18
2018-10-12T03:51:01.755Z,24.17
2018-10-12T03:53:32.168Z,24.17
2018-10-12T03:56:02.432Z,24.18
2018-10-12T03:58:32.719Z,24.16
2018-10-12T04:01:03.046Z,24.16
2018-10-12T04:03:33.414Z,24.16
2018-10-12T04:06:03.825Z,24.16
2018-10-12T04:08:34.107Z,24.16
2018-10-12T04:11:04.367Z,24.14
2018-10-12T04:13:34.662Z,24.13
2018-10-12T04:16:04.994Z,24.14
2018-10-12T04:18:35.306Z,24.13
2018-10-12T04:21:05.567Z,24.13
2018-10-12T04:23:36.288Z,24.14
2018-10-12T04:26:06.630Z,24.12
2018-10-12T04:28:37.895Z,24.12
2018-10-12T04:31:08.155Z,24.11
2018-10-12T04:33:38.490Z,24.12
2018-10-12T04:36:09.042Z,24.11
2018-10-12T04:41:19.648Z,24.11
2018-10-12T04:43:54.402Z,23.95
2018-10-12T04:46:36.504Z,23.98
2018-10-12T04:49:09.767Z,23.99
2018-10-12T04:51:52.587Z,23.99
2018-10-12T04:54:23.063Z,23.99
2018-10-12T04:56:53.654Z,24.00
2018-10-12T04:59:23.956Z,24.01
2018-10-12T05:01:54.328Z,24.01
2018-10-12T05:04:24.594Z,24.02
2018-10-12T05:06:54.851Z,24.03
2018-10-12T05:09:25.130Z,24.04
2018-10-12T05:11:55.458Z,24.05
2018-10-12T05:14:25.880Z,24.04
2018-10-12T05:16:56.660Z,24.06
2018-10-12T05:19:28.378Z,24.06
2018-10-12T05:21:58.738Z,24.05
2018-10-12T05:24:28.983Z,24.05
2018-10-12T05:26:59.317Z,24.05
2018-10-12T05:29:29.579Z,24.04
2018-10-12T05:31:59.871Z,24.04
2018-10-12T05:34:30.235Z,24.04
2018-10-12T05:37:01.135Z,24.04
2018-10-12T05:39:31.499Z,24.04
2018-10-12T05:42:01.751Z,24.03
2018-10-12T05:44:32.088Z,24.03
2018-10-12T05:47:02.407Z,24.03
2018-10-12T05:50:03.411Z,24.03
2018-10-12T05:52:35.115Z,23.99
2018-10-12T05:55:05.383Z,23.99
2018-10-12T05:57:40.490Z,23.99
2018-10-12T06:00:12.039Z,23.98
2018-10-12T06:02:42.362Z,23.99
2018-10-12T06:05:12.706Z,24.00
2018-10-12T06:07:42.967Z,24.01
2018-10-12T06:10:13.263Z,24.01
2018-10-12T06:12:43.527Z,24.02
2018-10-12T06:15:13.768Z,24.02
2018-10-12T06:17:44.043Z,24.03
2018-10-12T06:20:14.510Z,24.03
2018-10-12T06:22:44.911Z,24.05
2018-10-12T06:25:15.170Z,24.04
2018-10-12T06:27:45.431Z,24.05
2018-10-12T06:30:15.691Z,24.06
2018-10-12T06:32:46.196Z,24.07
2018-10-12T06:35:16.500Z,24.07
2018-10-12T06:37:46.843Z,24.10
2018-10-12T06:40:17.099Z,24.10
2018-10-12T06:42:47.371Z,24.12
2018-10-12T06:45:17.615Z,24.12
2018-10-12T06:47:47.870Z,24.13
2018-10-12T06:50:18.250Z,24.13
2018-10-12T06:52:48.594Z,24.16
2018-10-12T06:55:18.910Z,24.17
2018-10-12T06:57:49.174Z,24.20
2018-10-12T07:00:19.420Z,24.23
2018-10-12T07:02:49.826Z,24.23
2018-10-12T07:05:20.255Z,24.26
2018-10-12T07:07:50.650Z,24.27
2018-10-12T07:10:20.895Z,24.28
2018-10-12T07:12:51.189Z,24.29
2018-10-12T07:15:21.459Z,24.30
2018-10-12T07:17:51.718Z,24.33
2018-10-12T07:20:21.994Z,24.35
2018-10-12T07:22:52.268Z,24.37
2018-10-12T07:25:22.510Z,24.38
2018-10-12T07:27:53.031Z,24.41
2018-10-12T07:30:23.278Z,24.42
2018-10-12T07:32:53.563Z,24.44
2018-10-12T07:35:23.892Z,24.48
2018-10-12T07:37:54.250Z,24.50
2018-10-12T07:40:24.499Z,24.51
2018-10-12T07:42:55.035Z,24.52
2018-10-12T07:45:25.302Z,24.53
2018-10-12T07:47:55.684Z,24.56
2018-10-12T07:50:25.905Z,24.59
2018-10-12T07:52:56.187Z,24.53
2018-10-12T07:55:26.512Z,24.45
2018-10-12T07:57:56.783Z,24.42
2018-10-12T08:00:27.209Z,24.43
2018-10-12T08:02:57.500Z,24.44
2018-10-12T08:05:27.846Z,24.45
2018-10-12T08:07:58.171Z,24.38
2018-10-12T08:10:28.593Z,24.34
2018-10-12T08:12:58.886Z,24.33
2018-10-12T08:15:29.223Z,24.31
2018-10-12T08:17:59.525Z,24.31
2018-10-12T08:20:29.927Z,24.31
2018-10-12T08:23:00.606Z,24.28
2018-10-12T08:25:30.955Z,24.27
2018-10-12T08:28:01.216Z,24.25
2018-10-12T08:30:32.099Z,24.24
2018-10-12T08:33:02.570Z,24.25
2018-10-12T08:35:32.875Z,24.27
2018-10-12T08:38:03.254Z,24.28
2018-10-12T08:40:33.507Z,24.29
2018-10-12T08:43:03.882Z,24.28
2018-10-12T08:45:34.262Z,24.26
2018-10-12T08:48:04.479Z,24.27
2018-10-12T08:50:35.983Z,24.21
2018-10-12T08:53:06.339Z,24.11
2018-10-12T08:55:36.678Z,24.05
2018-10-12T08:58:06.967Z,23.99
2018-10-12T09:00:37.300Z,23.87
2018-10-12T09:03:07.840Z,23.99
2018-10-12T09:05:38.183Z,24.03
2018-10-12T09:08:08.505Z,24.07
2018-10-12T09:10:38.807Z,24.13
2018-10-12T09:13:09.119Z,24.17
2018-10-12T09:15:39.515Z,24.22
2018-10-12T09:18:09.870Z,24.23
2018-10-12T09:20:40.273Z,24.25
2018-10-12T09:23:10.546Z,24.27
2018-10-12T09:25:40.869Z,24.33
2018-10-12T09:28:11.198Z,24.39
2018-10-12T09:30:41.759Z,24.41
2018-10-12T09:33:12.015Z,24.44
2018-10-12T09:35:42.354Z,24.47
2018-10-12T09:38:12.599Z,24.49
2018-10-12T09:40:42.871Z,24.53
2018-10-12T09:43:13.116Z,24.56
2018-10-12T09:45:43.444Z,24.60
2018-10-12T09:48:13.675Z,24.63
2018-10-12T09:50:44.039Z,24.68
2018-10-12T09:53:14.307Z,24.69
2018-10-12T09:55:44.661Z,24.71
2018-10-12T09:58:14.859Z,24.71
2018-10-12T10:00:50.385Z,24.74
2018-10-12T10:03:25.935Z,24.78
2018-10-12T10:05:56.344Z,24.83
2018-10-12T10:08:26.807Z,24.89
2018-10-12T10:10:56.995Z,24.96
2018-10-12T10:13:27.352Z,25.03
2018-10-12T10:15:57.718Z,25.11
2018-10-12T10:18:27.983Z,25.20
2018-10-12T10:20:58.235Z,25.29
2018-10-12T10:23:28.659Z,25.36
2018-10-12T10:25:59.262Z,25.46
2018-10-12T10:28:29.686Z,25.52
2018-10-12T10:31:00.062Z,25.56
2018-10-12T10:33:30.378Z,25.60
2018-10-12T10:36:01.640Z,25.62
2018-10-12T10:38:31.610Z,25.66
2018-10-12T10:41:02.040Z,25.69
2018-10-12T10:43:32.375Z,25.70
2018-10-12T10:46:02.772Z,25.69
2018-10-12T10:48:39.735Z,25.69
2018-10-12T10:51:10.218Z,25.70
2018-10-12T10:53:40.993Z,25.73
2018-10-12T10:56:11.414Z,25.74
2018-10-12T10:58:41.663Z,25.77
2018-10-12T11:01:11.936Z,25.80
2018-10-12T11:03:42.311Z,25.86
2018-10-12T11:06:12.700Z,25.92
2018-10-12T11:08:42.995Z,25.95
2018-10-12T11:11:13.318Z,25.98
2018-10-12T11:13:43.675Z,26.02
2018-10-12T11:16:14.032Z,26.04
2018-10-12T11:18:44.584Z,26.05
2018-10-12T11:21:14.986Z,26.08
2018-10-12T11:23:45.375Z,26.11
2018-10-12T11:26:15.892Z,26.08
2018-10-12T11:28:46.604Z,26.12
2018-10-12T11:31:17.367Z,26.14
2018-10-12T11:33:47.798Z,26.17
2018-10-12T11:36:18.123Z,26.21
2018-10-12T11:38:48.463Z,26.26
2018-10-12T11:41:18.891Z,26.30
2018-10-12T11:43:49.698Z,26.29
2018-10-12T11:46:20.406Z,26.34
2018-10-12T11:48:51.057Z,26.35
2018-10-12T11:51:21.751Z,26.34
2018-10-12T11:53:52.433Z,26.34
2018-10-12T11:56:22.783Z,26.36
2018-10-12T11:58:53.163Z,26.32
2018-10-12T12:01:23.420Z,26.33
2018-10-12T12:03:53.693Z,26.36
2018-10-12T12:06:23.970Z,26.38
2018-10-12T12:08:54.275Z,26.38
2018-10-12T12:11:24.604Z,26.38
2018-10-12T12:13:55.020Z,26.44
2018-10-12T12:16:25.810Z,26.45
2018-10-12T12:18:56.104Z,26.43
2018-10-12T12:21:26.434Z,26.40
2018-10-12T12:23:56.757Z,26.43
2018-10-12T12:26:27.013Z,26.46
2018-10-12T12:28:57.290Z,26.48
2018-10-12T12:31:27.695Z,26.54
2018-10-12T12:33:57.972Z,26.58
2018-10-12T12:36:28.262Z,26.58
2018-10-12T12:38:58.514Z,26.58
2018-10-12T12:41:28.820Z,26.60
2018-10-12T12:43:59.147Z,26.62
2018-10-12T12:46:29.510Z,26.64
2018-10-12T12:49:00.215Z,26.67
2018-10-12T12:51:30.777Z,26.64
2018-10-12T12:54:01.215Z,26.61
2018-10-12T12:56:31.555Z,26.59
2018-10-12T12:59:01.929Z,26.59
2018-10-12T13:01:32.216Z,26.62
2018-10-12T13:04:02.571Z,26.71
2018-10-12T13:06:33.135Z,26.76
2018-10-12T13:09:04.943Z,26.75
2018-10-12T13:11:35.354Z,26.76
2018-10-12T13:14:05.710Z,26.76
2018-10-12T13:16:36.075Z,26.73
2018-10-12T13:19:06.368Z,26.69
2018-10-12T13:21:36.614Z,26.65
2018-10-12T13:24:06.947Z,26.62
2018-10-12T13:26:37.314Z,26.57
2018-10-12T13:29:08.062Z,26.52
2018-10-12T13:31:38.366Z,26.49
2018-10-12T13:34:08.859Z,26.45
2018-10-12T13:36:39.252Z,26.39
2018-10-12T13:39:12.631Z,26.34
2018-10-12T13:41:42.951Z,26.28
2018-10-12T13:44:13.283Z,26.26
2018-10-12T13:46:44.062Z,26.28
2018-10-12T13:49:15.278Z,26.33
2018-10-12T13:51:45.654Z,26.37
2018-10-12T13:54:16.985Z,26.38
2018-10-12T13:56:47.262Z,26.40
2018-10-12T13:59:17.668Z,26.44
2018-10-12T14:01:48.058Z,26.49
2018-10-12T14:04:18.565Z,26.55
2018-10-12T14:06:48.938Z,26.57
2018-10-12T14:09:19.196Z,26.55
2018-10-12T14:11:49.527Z,26.43
2018-10-12T14:14:19.834Z,26.61
2018-10-12T14:16:50.164Z,26.61
2018-10-12T14:19:21.349Z,26.63
2018-10-12T14:21:51.619Z,26.67
2018-10-12T14:24:22.028Z,26.68
2018-10-12T14:26:52.535Z,26.67
2018-10-12T14:29:22.864Z,26.67
2018-10-12T14:31:53.148Z,26.66
2018-10-12T14:34:23.580Z,26.68
2018-10-12T14:36:53.926Z,26.70
2018-10-12T14:39:24.247Z,26.71
2018-10-12T14:41:54.704Z,26.71
2018-10-12T14:44:25.235Z,26.68
2018-10-12T14:46:55.423Z,26.65
2018-10-12T14:49:25.926Z,26.67
2018-10-12T14:51:56.870Z,26.67
2018-10-12T14:54:27.123Z,26.66
2018-10-12T14:56:57.415Z,26.66
2018-10-12T14:59:27.678Z,26.67
2018-10-12T15:01:58.096Z,26.65
2018-10-12T15:04:28.394Z,26.64
2018-10-12T15:06:58.769Z,26.62
2018-10-12T15:09:29.135Z,26.62
2018-10-12T15:11:59.470Z,26.58
2018-10-12T15:14:53.050Z,26.56
2018-10-12T15:17:23.359Z,26.53
2018-10-12T15:19:53.690Z,26.51
2018-10-12T15:22:23.998Z,26.46
2018-10-12T15:24:54.295Z,26.42
2018-10-12T15:27:24.571Z,26.37
2018-10-12T15:29:54.887Z,26.32
2018-10-12T15:32:26.223Z,26.28
2018-10-12T15:34:57.090Z,26.24
2018-10-12T15:37:27.379Z,26.18
2018-10-12T15:39:57.720Z,26.17
2018-10-12T15:42:27.979Z,26.13
2018-10-12T15:44:58.245Z,26.05
2018-10-12T15:47:28.494Z,26.02
2018-10-12T15:49:58.791Z,25.98
2018-10-12T15:52:29.119Z,25.92
2018-10-12T15:54:59.506Z,25.88
2018-10-12T15:57:31.786Z,25.84
2018-10-12T16:00:02.051Z,25.82
2018-10-12T16:02:32.659Z,25.81
2018-10-12T16:05:04.104Z,25.80
2018-10-12T16:07:34.479Z,25.80
2018-10-12T16:10:04.799Z,25.74
2018-10-12T16:12:36.215Z,25.68
2018-10-12T16:15:06.954Z,25.66
2018-10-12T16:17:37.371Z,25.64
2018-10-12T16:20:07.731Z,25.65
2018-10-12T16:22:38.147Z,25.62
2018-10-12T16:26:03.730Z,25.58
2018-10-12T16:28:34.479Z,25.47
2018-10-12T16:31:05.259Z,25.44
2018-10-12T16:33:35.657Z,25.41
2018-10-12T16:36:06.038Z,25.37
2018-10-12T16:38:36.452Z,25.33
2018-10-12T16:41:07.446Z,25.27
2018-10-12T16:43:37.806Z,25.22
2018-10-12T16:46:11.075Z,25.16
2018-10-12T16:48:41.402Z,25.13
2018-10-12T16:51:11.707Z,25.07
2018-10-12T16:53:42.071Z,25.04
2018-10-12T16:56:12.424Z,25.02
2018-10-12T16:58:42.720Z,24.99
2018-10-12T17:01:13.030Z,24.98
2018-10-12T17:03:43.342Z,24.97
2018-10-12T17:06:13.732Z,24.90
2018-10-12T17:08:44.088Z,24.89
2018-10-12T17:11:18.463Z,24.85
2018-10-12T17:13:48.843Z,24.79
2018-10-12T17:16:19.162Z,24.76
2018-10-12T17:18:49.424Z,24.68
2018-10-12T17:21:19.767Z,24.65
2018-10-12T17:23:50.194Z,24.63
2018-10-12T17:26:20.576Z,24.61
2018-10-12T17:28:50.902Z,24.61
2018-10-12T17:31:21.212Z,24.60
2018-10-12T17:33:51.531Z,24.59
2018-10-12T17:36:21.883Z,24.53
2018-10-12T17:38:53.666Z,24.51
2018-10-12T17:41:24.007Z,24.46
2018-10-12T17:43:54.430Z,24.44
2018-10-12T17:46:24.716Z,24.41
2018-10-12T17:48:55.689Z,24.41
2018-10-12T17:51:26.227Z,24.42
2018-10-12T17:53:56.670Z,24.43
2018-10-12T17:56:27.195Z,24.41
2018-10-12T17:58:57.602Z,24.41
2018-10-12T18:01:28.279Z,24.39
2018-10-12T18:03:58.710Z,24.40
2018-10-12T18:06:29.146Z,24.40
2018-10-12T18:08:59.505Z,24.41
2018-10-12T18:11:29.731Z,24.39
2018-10-12T18:14:00.383Z,24.34
2018-10-12T18:16:37.686Z,24.36
2018-10-12T18:19:08.326Z,24.31
2018-10-12T18:21:38.706Z,24.22
2018-10-12T18:24:09.094Z,24.18
2018-10-12T18:26:40.033Z,24.19
2018-10-12T18:29:10.491Z,24.22
2018-10-12T18:31:40.888Z,24.33
2018-10-12T18:34:11.146Z,24.47
2018-10-12T18:36:41.436Z,24.59
2018-10-12T18:39:12.013Z,24.69
2018-10-12T18:41:42.306Z,24.78
2018-10-12T18:44:12.594Z,24.87
2018-10-12T18:46:42.871Z,24.93
2018-10-12T18:49:13.147Z,24.96
2018-10-12T18:51:43.619Z,25.01
2018-10-12T18:54:13.991Z,25.03
2018-10-12T18:56:44.454Z,25.08
2018-10-12T18:59:14.799Z,25.12
2018-10-12T19:01:45.464Z,25.14
2018-10-12T19:04:19.569Z,25.17
2018-10-12T19:06:49.888Z,25.18
2018-10-12T19:09:21.125Z,25.22
2018-10-12T19:11:51.935Z,25.23
2018-10-12T19:14:22.284Z,25.24
2018-10-12T19:16:53.670Z,25.25
2018-10-12T19:19:24.872Z,25.26
2018-10-12T19:21:55.177Z,25.27
2018-10-12T19:24:25.561Z,25.26
2018-10-12T19:26:55.955Z,25.27
2018-10-12T19:29:26.626Z,25.29
2018-10-12T19:31:57.206Z,25.27
2018-10-12T19:34:27.515Z,25.25
2018-10-12T19:36:57.913Z,25.27
2018-10-12T19:39:28.427Z,25.28
2018-10-12T19:41:58.873Z,25.31
2018-10-12T19:44:30.316Z,25.33
2018-10-12T19:47:00.852Z,25.32
2018-10-12T19:49:31.263Z,25.34
2018-10-12T19:52:01.780Z,25.34
2018-10-12T19:54:32.377Z,25.32
2018-10-12T19:57:02.967Z,25.31
2018-10-12T19:59:33.463Z,25.29
2018-10-12T20:02:03.962Z,25.28
2018-10-12T20:04:34.959Z,25.26
2018-10-12T20:07:05.361Z,25.25
2018-10-12T20:09:35.885Z,25.25
2018-10-12T20:12:06.456Z,25.24
2018-10-12T20:14:36.899Z,25.24
2018-10-12T20:17:07.308Z,25.26
2018-10-12T20:19:37.780Z,25.25
2018-10-12T20:22:10.999Z,25.28
2018-10-12T20:24:41.696Z,25.28
2018-10-12T20:27:12.070Z,25.28
2018-10-12T20:29:42.535Z,25.27
2018-10-12T20:32:12.903Z,25.30
2018-10-12T20:34:43.240Z,25.33
2018-10-12T20:37:13.620Z,25.36
2018-10-12T20:39:44.455Z,25.38
2018-10-12T20:42:14.758Z,25.40
2018-10-12T20:44:45.164Z,25.41
2018-10-12T20:47:15.472Z,25.41
2018-10-12T20:49:45.813Z,25.41
2018-10-12T20:52:16.663Z,25.41
2018-10-12T20:54:47.091Z,25.43
2018-10-12T20:57:18.636Z,25.46
2018-10-12T20:59:49.072Z,25.47
2018-10-12T21:02:19.524Z,25.46
2018-10-12T21:04:50.019Z,25.44
2018-10-12T21:07:20.291Z,25.40
2018-10-12T21:09:50.795Z,25.39
2018-10-12T21:12:21.207Z,25.37
2018-10-12T21:14:51.583Z,25.35
2018-10-12T21:17:21.907Z,25.33
2018-10-12T21:19:53.209Z,25.31
2018-10-12T21:22:23.582Z,25.32
2018-10-12T21:24:53.995Z,25.31
2018-10-12T21:27:24.362Z,25.32
2018-10-12T21:29:54.671Z,25.34
2018-10-12T21:32:25.538Z,25.35
2018-10-12T21:34:56.008Z,25.36
2018-10-12T21:37:26.278Z,25.35
2018-10-12T21:39:56.694Z,25.35
2018-10-12T21:42:26.999Z,25.33
2018-10-12T21:44:57.307Z,25.34
2018-10-12T21:47:27.612Z,25.33
2018-10-12T21:49:58.083Z,25.45
2018-10-12T21:52:28.378Z,25.48
2018-10-12T21:54:58.735Z,25.51
2018-10-12T21:57:29.199Z,25.36
2018-10-12T21:59:59.633Z,25.28
2018-10-12T22:02:29.910Z,25.23
2018-10-12T22:05:00.422Z,25.21
2018-10-12T22:07:30.803Z,25.18
2018-10-12T22:10:01.279Z,25.17
2018-10-12T22:12:31.611Z,25.15
2018-10-12T22:15:01.997Z,25.14
2018-10-12T22:17:33.547Z,25.12
2018-10-12T22:20:03.939Z,25.11
2018-10-12T22:22:34.610Z,25.12
2018-10-12T22:25:04.981Z,25.11
2018-10-12T22:27:35.340Z,25.13
2018-10-12T22:30:06.738Z,25.12
2018-10-12T22:32:37.134Z,25.13
2018-10-12T22:35:07.567Z,25.13
2018-10-12T22:37:37.922Z,25.12
2018-10-12T22:40:08.275Z,25.13
2018-10-12T22:42:38.589Z,25.12
2018-10-12T22:49:28.309Z,25.13
2018-10-12T22:51:58.607Z,24.94
2018-10-12T22:54:28.944Z,24.96
2018-10-12T22:56:59.847Z,24.98
2018-10-12T22:59:30.202Z,25.00
2018-10-12T23:02:00.562Z,25.00
2018-10-12T23:04:30.946Z,25.02
2018-10-12T23:07:01.257Z,25.03
2018-10-12T23:09:31.603Z,25.04
2018-10-12T23:12:01.962Z,25.04
2018-10-12T23:14:32.346Z,25.06
2018-10-12T23:17:02.691Z,25.06
2018-10-12T23:19:33.006Z,25.06
2018-10-12T23:22:04.071Z,25.06
2018-10-12T23:24:34.356Z,25.07
2018-10-12T23:27:04.634Z,25.07
2018-10-12T23:29:34.891Z,25.07
2018-10-12T23:32:05.194Z,25.07
2018-10-12T23:34:35.587Z,25.07
2018-10-12T23:37:06.087Z,25.07
2018-10-12T23:39:36.393Z,25.07
2018-10-12T23:42:06.687Z,25.08
2018-10-12T23:44:37.052Z,25.08
2018-10-12T23:47:07.621Z,25.08
2018-10-12T23:49:37.898Z,25.08
2018-10-12T23:52:08.475Z,25.08
2018-10-12T23:54:38.770Z,25.08
2018-10-12T23:57:09.403Z,25.08
2018-10-12T23:59:39.750Z,25.08
